Time,TemperatureF,DewpointF,PressureIn,WindDirection,WindDirectionDegrees,WindSpeedMPH,WindSpeedGustMPH,Humidity,HourlyPrecipIn,Conditions,Clouds,dailyrainin,SoftwareType,DateUTC
2013-06-06 00:02:00,51.8,48.0,30.12,North,0,6.6,6.6,87,0.00,,,0.00,WUHU216HW,2013-06-06 05:02:00,
2013-06-06 00:07:00,51.8,48.0,30.12,NNE,23,5.5,6.6,87,0.00,,,0.00,WUHU216HW,2013-06-06 05:07:00,
2013-06-06 00:12:00,51.8,48.0,30.12,NNE,23,5.5,5.5,87,0.00,,,0.00,WUHU216HW,2013-06-06 05:12:00,
2013-06-06 00:17:00,51.8,48.0,30.12,NNE,23,5.5,5.5,87,0.00,,,0.00,WUHU216HW,2013-06-06 05:17:00,
2013-06-06 00:22:00,51.6,47.8,30.12,NNE,23,0.0,5.5,87,0.00,,,0.00,WUHU216HW,2013-06-06 05:22:00,
2013-06-06 00:27:00,51.6,47.8,30.12,NNE,23,0.0,0.0,87,0.00,,,0.00,WUHU216HW,2013-06-06 05:27:00,
2013-06-06 00:32:00,51.6,47.8,30.11,NE,45,0.0,0.0,87,0.00,,,0.00,WUHU216HW,2013-06-06 05:32:00,
2013-06-06 00:37:00,51.4,47.6,30.11,NE,45,0.0,0.0,87,0.00,,,0.00,WUHU216HW,2013-06-06 05:37:00,
2013-06-06 00:42:00,51.4,47.6,30.12,NE,45,0.0,0.0,87,0.00,,,0.00,WUHU216HW,2013-06-06 05:42:00,
2013-06-06 00:47:00,51.4,47.6,30.12,NE,45,0.0,0.0,87,0.00,,,0.00,WUHU216HW,2013-06-06 05:47:00,
2013-06-06 00:52:00,51.4,47.6,30.11,ESE,113,0.0,0.0,87,0.02,,,0.02,WUHU216HW,2013-06-06 05:52:00,
2013-06-06 00:57:00,51.4,47.6,30.12,ESE,113,0.0,0.0,87,0.02,,,0.02,WUHU216HW,2013-06-06 05:57:00,
2013-06-06 01:02:00,51.2,47.4,30.11,ESE,113,0.0,0.0,87,0.02,,,0.02,WUHU216HW,2013-06-06 06:02:00,
2013-06-06 01:07:00,51.2,47.4,30.11,ESE,113,0.0,0.0,87,0.02,,,0.02,WUHU216HW,2013-06-06 06:07:00,
2013-06-06 01:12:00,51.2,47.7,30.11,East,90,0.0,0.0,88,0.02,,,0.02,WUHU216HW,2013-06-06 06:12:00,
2013-06-06 01:17:00,51.2,47.7,30.11,East,90,0.0,0.0,88,0.02,,,0.02,WUHU216HW,2013-06-06 06:17:00,
2013-06-06 01:22:00,51.0,47.5,30.11,East,90,0.0,0.0,88,0.02,,,0.02,WUHU216HW,2013-06-06 06:22:00,
2013-06-06 01:27:00,51.0,47.5,30.12,East,90,0.0,0.0,88,0.02,,,0.02,WUHU216HW,2013-06-06 06:27:00,
2013-06-06 01:32:00,51.0,47.5,30.12,ESE,113,0.0,0.0,88,0.02,,,0.02,WUHU216HW,2013-06-06 06:32:00,
2013-06-06 01:37:00,51.0,47.5,30.11,ESE,113,0.0,0.0,88,0.02,,,0.02,WUHU216HW,2013-06-06 06:37:00,
2013-06-06 01:42:00,51.0,47.5,30.11,ESE,113,0.0,0.0,88,0.02,,,0.02,WUHU216HW,2013-06-06 06:42:00,
2013-06-06 01:47:00,50.9,47.4,30.11,ESE,113,0.0,0.0,88,0.02,,,0.02,WUHU216HW,2013-06-06 06:47:00,
2013-06-06 01:52:00,50.9,47.4,30.11,ESE,113,0.0,0.0,88,0.00,,,0.02,WUHU216HW,2013-06-06 06:52:00,
2013-06-06 01:57:00,50.7,47.2,30.11,ESE,113,0.0,0.0,88,0.00,,,0.02,WUHU216HW,2013-06-06 06:57:00,
2013-06-06 02:02:00,50.7,47.2,30.11,ESE,113,0.0,0.0,88,0.00,,,0.02,WUHU216HW,2013-06-06 07:02:00,
2013-06-06 02:07:00,50.7,47.2,30.12,ESE,113,0.0,0.0,88,0.00,,,0.02,WUHU216HW,2013-06-06 07:07:00,
2013-06-06 02:12:00,50.7,47.2,30.11,ESE,113,0.0,0.0,88,0.00,,,0.02,WUHU216HW,2013-06-06 07:12:00,
2013-06-06 02:17:00,50.7,47.2,30.11,ESE,113,0.0,0.0,88,0.00,,,0.02,WUHU216HW,2013-06-06 07:17:00,
2013-06-06 02:22:00,50.7,47.2,30.12,ESE,113,0.0,1.9,88,0.00,,,0.02,WUHU216HW,2013-06-06 07:22:00,
2013-06-06 02:27:00,50.5,47.0,30.12,ESE,113,0.0,1.9,88,0.00,,,0.02,WUHU216HW,2013-06-06 07:27:00,
2013-06-06 02:32:00,50.5,47.0,30.12,ESE,113,0.0,0.0,88,0.00,,,0.02,WUHU216HW,2013-06-06 07:32:00,
2013-06-06 02:37:00,50.5,47.0,30.12,ESE,113,0.0,0.0,88,0.00,,,0.02,WUHU216HW,2013-06-06 07:37:00,
2013-06-06 02:42:00,50.5,47.0,30.12,ESE,113,0.0,0.0,88,0.00,,,0.02,WUHU216HW,2013-06-06 07:42:00,
2013-06-06 02:47:00,50.5,47.0,30.11,ESE,113,0.0,0.0,88,0.00,,,0.02,WUHU216HW,2013-06-06 07:47:00,
2013-06-06 02:52:00,50.5,47.0,30.11,ESE,113,0.0,0.0,88,0.00,,,0.02,WUHU216HW,2013-06-06 07:52:00,
2013-06-06 02:57:00,50.3,46.8,30.11,ESE,113,0.0,0.0,88,0.00,,,0.02,WUHU216HW,2013-06-06 07:57:00,
2013-06-06 03:02:00,50.5,47.0,30.11,ESE,113,0.0,0.0,88,0.00,,,0.02,WUHU216HW,2013-06-06 08:02:00,
2013-06-06 03:07:00,50.5,47.0,30.11,ESE,113,0.0,0.0,88,0.00,,,0.02,WUHU216HW,2013-06-06 08:07:00,
2013-06-06 03:12:00,50.5,47.0,30.11,ESE,113,0.0,0.0,88,0.00,,,0.02,WUHU216HW,2013-06-06 08:12:00,
2013-06-06 03:17:00,50.5,47.0,30.11,ESE,113,0.0,0.0,88,0.00,,,0.02,WUHU216HW,2013-06-06 08:17:00,
2013-06-06 03:22:00,50.5,47.0,30.11,East,90,0.0,0.0,88,0.00,,,0.02,WUHU216HW,2013-06-06 08:22:00,
2013-06-06 03:27:00,50.5,47.0,30.11,East,90,0.0,0.0,88,0.00,,,0.02,WUHU216HW,2013-06-06 08:27:00,
2013-06-06 03:32:00,50.7,47.2,30.11,East,90,0.0,0.0,88,0.00,,,0.02,WUHU216HW,2013-06-06 08:32:00,
2013-06-06 03:37:00,50.7,47.2,30.11,East,90,0.0,0.0,88,0.00,,,0.02,WUHU216HW,2013-06-06 08:37:00,
2013-06-06 03:42:00,50.7,47.2,30.11,NE,45,0.0,0.0,88,0.00,,,0.02,WUHU216HW,2013-06-06 08:42:00,
2013-06-06 03:47:00,50.7,47.2,30.11,NNE,23,0.0,0.0,88,0.00,,,0.02,WUHU216HW,2013-06-06 08:47:00,
2013-06-06 03:52:00,50.7,47.2,30.11,NNE,23,2.5,2.5,88,0.00,,,0.02,WUHU216HW,2013-06-06 08:52:00,
2013-06-06 03:57:00,50.7,47.2,30.10,NNE,23,0.0,2.8,88,0.00,,,0.02,WUHU216HW,2013-06-06 08:57:00,
2013-06-06 04:02:00,50.9,47.4,30.10,NNE,23,4.1,4.4,88,0.00,,,0.02,WUHU216HW,2013-06-06 09:02:00,
2013-06-06 04:07:00,50.9,47.4,30.11,NNE,23,4.9,5.0,88,0.00,,,0.02,WUHU216HW,2013-06-06 09:07:00,
2013-06-06 04:12:00,50.9,47.4,30.10,NNE,23,1.9,5.0,88,0.00,,,0.02,WUHU216HW,2013-06-06 09:12:00,
2013-06-06 04:17:00,50.9,47.4,30.11,NNE,23,0.0,4.8,88,0.00,,,0.02,WUHU216HW,2013-06-06 09:17:00,
2013-06-06 04:22:00,50.7,47.2,30.10,NNE,23,0.0,0.0,88,0.00,,,0.02,WUHU216HW,2013-06-06 09:22:00,
2013-06-06 04:27:00,50.7,47.2,30.10,NNE,23,0.0,0.0,88,0.00,,,0.02,WUHU216HW,2013-06-06 09:27:00,
2013-06-06 04:32:00,50.7,47.2,30.11,NNE,23,0.0,0.0,88,0.00,,,0.02,WUHU216HW,2013-06-06 09:32:00,
2013-06-06 04:37:00,50.7,47.2,30.11,NE,45,0.0,0.0,88,0.02,,,0.04,WUHU216HW,2013-06-06 09:37:00,
2013-06-06 04:42:00,50.5,47.0,30.10,NE,45,0.0,0.0,88,0.02,,,0.04,WUHU216HW,2013-06-06 09:42:00,
2013-06-06 04:47:00,50.5,47.0,30.11,NE,45,0.0,0.0,88,0.02,,,0.04,WUHU216HW,2013-06-06 09:47:00,
2013-06-06 04:52:00,50.5,47.0,30.10,North,0,0.0,0.0,88,0.02,,,0.04,WUHU216HW,2013-06-06 09:52:00,
2013-06-06 04:57:00,50.3,46.8,30.11,NNE,23,0.0,0.0,88,0.02,,,0.04,WUHU216HW,2013-06-06 09:57:00,
2013-06-06 05:02:00,50.1,46.6,30.11,North,0,0.0,0.0,88,0.02,,,0.04,WUHU216HW,2013-06-06 10:02:00,
2013-06-06 05:07:00,50.1,46.9,30.11,North,0,0.0,0.0,89,0.02,,,0.04,WUHU216HW,2013-06-06 10:07:00,
2013-06-06 05:12:00,50.1,46.9,30.11,ESE,113,0.0,0.0,89,0.02,,,0.04,WUHU216HW,2013-06-06 10:12:00,
2013-06-06 05:17:00,50.1,46.9,30.11,ESE,113,0.0,0.0,89,0.02,,,0.04,WUHU216HW,2013-06-06 10:17:00,
2013-06-06 05:22:00,50.1,46.9,30.11,ESE,113,0.0,0.0,89,0.02,,,0.04,WUHU216HW,2013-06-06 10:22:00,
2013-06-06 05:27:00,50.1,46.9,30.11,ESE,113,0.0,0.0,89,0.02,,,0.04,WUHU216HW,2013-06-06 10:27:00,
2013-06-06 05:32:00,50.1,46.9,30.11,ESE,113,0.0,0.0,89,0.00,,,0.04,WUHU216HW,2013-06-06 10:32:00,
2013-06-06 05:37:00,50.1,46.9,30.11,ESE,113,0.0,0.0,89,0.00,,,0.04,WUHU216HW,2013-06-06 10:37:00,
2013-06-06 05:42:00,50.1,46.9,30.11,ESE,113,0.0,0.0,89,0.00,,,0.04,WUHU216HW,2013-06-06 10:42:00,
2013-06-06 05:47:00,50.1,46.9,30.12,East,90,0.0,0.0,89,0.00,,,0.04,WUHU216HW,2013-06-06 10:47:00,
2013-06-06 05:52:00,50.1,46.9,30.11,NNE,23,1.6,1.6,89,0.00,,,0.04,WUHU216HW,2013-06-06 10:52:00,
2013-06-06 05:57:00,50.1,46.9,30.11,NNE,23,0.0,1.6,89,0.00,,,0.04,WUHU216HW,2013-06-06 10:57:00,
2013-06-06 06:02:00,50.1,46.9,30.11,NNE,23,0.0,1.6,89,0.00,,,0.04,WUHU216HW,2013-06-06 11:02:00,
2013-06-06 06:07:00,50.1,46.9,30.11,NE,45,0.0,0.0,89,0.00,,,0.04,WUHU216HW,2013-06-06 11:07:00,
2013-06-06 06:12:00,49.8,46.6,30.12,NE,45,0.0,0.0,89,0.00,,,0.04,WUHU216HW,2013-06-06 11:12:00,
2013-06-06 06:17:00,50.0,46.8,30.12,NE,45,0.0,0.0,89,0.00,,,0.04,WUHU216HW,2013-06-06 11:17:00,
2013-06-06 06:22:00,50.1,46.9,30.12,NNE,23,0.0,0.0,89,0.00,,,0.04,WUHU216HW,2013-06-06 11:22:00,
2013-06-06 06:27:00,50.1,46.9,30.12,North,0,0.0,0.0,89,0.00,,,0.04,WUHU216HW,2013-06-06 11:27:00,
2013-06-06 06:32:00,49.8,46.6,30.12,North,0,0.0,0.0,89,0.00,,,0.04,WUHU216HW,2013-06-06 11:32:00,
2013-06-06 06:37:00,49.8,46.6,30.12,North,0,0.0,0.0,89,0.00,,,0.04,WUHU216HW,2013-06-06 11:37:00,
2013-06-06 06:42:00,49.8,46.6,30.12,North,0,0.0,0.0,89,0.00,,,0.04,WUHU216HW,2013-06-06 11:42:00,
2013-06-06 06:47:00,50.0,46.8,30.12,North,0,0.0,0.0,89,0.00,,,0.04,WUHU216HW,2013-06-06 11:47:00,
2013-06-06 06:52:00,49.8,46.6,30.12,North,0,0.0,0.0,89,0.00,,,0.04,WUHU216HW,2013-06-06 11:52:00,
2013-06-06 06:57:00,49.8,46.6,30.12,North,0,0.0,0.0,89,0.00,,,0.04,WUHU216HW,2013-06-06 11:57:00,
2013-06-06 07:02:00,50.1,46.9,30.12,North,0,0.0,0.0,89,0.00,,,0.04,WUHU216HW,2013-06-06 12:02:00,
2013-06-06 07:07:00,50.1,46.9,30.12,North,0,0.0,0.0,89,0.00,,,0.04,WUHU216HW,2013-06-06 12:07:00,
2013-06-06 07:12:00,50.1,46.9,30.12,North,0,0.0,0.0,89,0.00,,,0.04,WUHU216HW,2013-06-06 12:12:00,
2013-06-06 07:17:00,50.1,46.9,30.12,East,90,0.0,0.0,89,0.00,,,0.04,WUHU216HW,2013-06-06 12:17:00,
2013-06-06 07:22:00,50.3,47.1,30.12,ENE,68,0.0,0.0,89,0.00,,,0.04,WUHU216HW,2013-06-06 12:22:00,
2013-06-06 07:27:00,50.5,47.3,30.12,ENE,68,0.0,0.0,89,0.00,,,0.04,WUHU216HW,2013-06-06 12:27:00,
2013-06-06 07:32:00,50.7,47.5,30.12,ENE,68,0.0,0.0,89,0.00,,,0.04,WUHU216HW,2013-06-06 12:32:00,
2013-06-06 07:37:00,51.4,48.2,30.12,ENE,68,0.0,0.0,89,0.00,,,0.04,WUHU216HW,2013-06-06 12:37:00,
2013-06-06 07:42:00,51.8,48.6,30.12,ENE,68,0.0,0.0,89,0.00,,,0.04,WUHU216HW,2013-06-06 12:42:00,
2013-06-06 07:47:00,52.5,49.1,30.12,ENE,68,0.0,0.0,89,0.00,,,0.04,WUHU216HW,2013-06-06 12:47:00,
2013-06-06 07:53:00,53.2,50.0,30.12,ENE,68,0.0,0.0,89,0.00,,,0.04,WUHU216HW,2013-06-06 12:53:00,
2013-06-06 07:58:00,53.7,50.5,30.11,ENE,68,0.0,0.0,89,0.00,,,0.04,WUHU216HW,2013-06-06 12:58:00,
2013-06-06 08:03:00,54.1,50.6,30.12,ENE,68,0.0,0.0,88,0.00,,,0.04,WUHU216HW,2013-06-06 13:03:00,
2013-06-06 08:08:00,54.1,50.3,30.12,ESE,113,0.0,0.0,87,0.00,,,0.04,WUHU216HW,2013-06-06 13:08:00,
2013-06-06 08:13:00,53.9,50.1,30.12,ESE,113,0.0,0.0,87,0.00,,,0.04,WUHU216HW,2013-06-06 13:13:00,
2013-06-06 08:17:00,53.4,49.3,30.12,ESE,113,0.0,0.0,86,0.00,,,0.04,WUHU216HW,2013-06-06 13:17:00,
2013-06-06 08:22:00,53.0,48.6,30.12,ESE,113,0.0,0.0,85,0.00,,,0.04,WUHU216HW,2013-06-06 13:22:00,
2013-06-06 08:27:00,52.8,48.4,30.12,ESE,113,0.0,0.0,85,0.00,,,0.04,WUHU216HW,2013-06-06 13:27:00,
2013-06-06 08:32:00,52.7,48.2,30.12,ESE,113,0.0,0.0,85,0.00,,,0.04,WUHU216HW,2013-06-06 13:32:00,
2013-06-06 08:37:00,53.4,49.0,30.12,East,90,0.0,0.0,85,0.00,,,0.04,WUHU216HW,2013-06-06 13:37:00,
2013-06-06 08:42:00,53.9,49.5,30.12,North,0,0.0,0.0,85,0.00,,,0.04,WUHU216HW,2013-06-06 13:42:00,
2013-06-06 08:48:00,54.1,49.3,30.13,NNE,23,0.0,0.0,84,0.00,,,0.04,WUHU216HW,2013-06-06 13:48:00,
2013-06-06 08:52:00,54.1,49.0,30.13,SE,135,0.0,0.0,83,0.00,,,0.04,WUHU216HW,2013-06-06 13:52:00,
2013-06-06 08:57:00,53.9,48.9,30.13,SE,135,0.0,0.0,83,0.00,,,0.04,WUHU216HW,2013-06-06 13:57:00,
2013-06-06 09:02:00,53.7,48.7,30.13,SE,135,0.0,0.0,83,0.00,,,0.04,WUHU216HW,2013-06-06 14:02:00,
2013-06-06 09:07:00,53.6,48.5,30.13,SE,135,0.0,0.0,83,0.00,,,0.04,WUHU216HW,2013-06-06 14:07:00,
2013-06-06 09:12:00,53.7,48.7,30.12,East,90,0.0,0.0,83,0.00,,,0.04,WUHU216HW,2013-06-06 14:12:00,
2013-06-06 09:17:00,54.1,49.0,30.13,East,90,0.0,0.0,83,0.00,,,0.04,WUHU216HW,2013-06-06 14:17:00,
2013-06-06 09:22:00,54.3,48.7,30.13,East,90,0.0,0.0,82,0.00,,,0.04,WUHU216HW,2013-06-06 14:22:00,
2013-06-06 09:27:00,54.3,48.9,30.13,East,90,0.0,0.0,82,0.00,,,0.04,WUHU216HW,2013-06-06 14:27:00,
2013-06-06 09:32:00,54.5,49.1,30.13,East,90,0.0,0.0,82,0.00,,,0.04,WUHU216HW,2013-06-06 14:32:00,
2013-06-06 09:37:00,55.2,49.2,30.13,NNE,23,0.0,0.0,81,0.00,,,0.04,WUHU216HW,2013-06-06 14:37:00,
2013-06-06 09:42:00,55.5,49.7,30.13,NNE,23,0.0,0.0,81,0.00,,,0.04,WUHU216HW,2013-06-06 14:42:00,
2013-06-06 09:47:00,56.1,50.3,30.13,NNE,23,0.0,0.0,81,0.00,,,0.04,WUHU216HW,2013-06-06 14:47:00,
2013-06-06 09:52:00,56.4,50.0,30.14,NNE,23,0.0,0.0,79,0.00,,,0.04,WUHU216HW,2013-06-06 14:52:00,
2013-06-06 09:57:00,56.3,49.4,30.14,NNE,23,0.0,0.0,78,0.00,,,0.04,WUHU216HW,2013-06-06 14:57:00,
2013-06-06 10:02:00,55.9,49.1,30.14,NNE,23,0.0,0.0,78,0.00,,,0.04,WUHU216HW,2013-06-06 15:02:00,
2013-06-06 10:08:00,56.4,49.6,30.14,NNE,23,0.0,0.0,78,0.00,,,0.04,WUHU216HW,2013-06-06 15:08:00,
2013-06-06 10:13:00,57.0,50.1,30.14,NNE,23,3.3,3.3,78,0.00,,,0.04,WUHU216HW,2013-06-06 15:13:00,
2013-06-06 10:18:00,57.0,49.4,30.14,NNE,23,0.0,3.3,76,0.00,,,0.04,WUHU216HW,2013-06-06 15:18:00,
2013-06-06 10:23:00,56.8,48.9,30.13,NNE,23,0.0,0.3,75,0.00,,,0.04,WUHU216HW,2013-06-06 15:23:00,
2013-06-06 10:28:00,56.4,48.9,30.13,NNE,23,0.0,0.0,76,0.00,,,0.04,WUHU216HW,2013-06-06 15:28:00,
2013-06-06 10:33:00,56.3,48.7,30.13,NNE,23,0.0,0.0,76,0.00,,,0.04,WUHU216HW,2013-06-06 15:33:00,
2013-06-06 10:39:00,55.7,48.2,30.13,NNE,23,0.0,2.5,76,0.00,,,0.04,WUHU216HW,2013-06-06 15:39:00,
2013-06-06 10:44:00,55.5,48.4,30.13,NNE,23,1.4,2.5,77,0.00,,,0.04,WUHU216HW,2013-06-06 15:44:00,
2013-06-06 10:49:00,55.9,48.7,30.13,NNE,23,0.0,1.4,77,0.00,,,0.04,WUHU216HW,2013-06-06 15:49:00,
2013-06-06 10:54:00,56.4,48.9,30.13,NNE,23,0.0,8.0,76,0.00,,,0.04,WUHU216HW,2013-06-06 15:54:00,
2013-06-06 10:59:00,57.3,49.4,30.13,NNE,23,9.1,9.1,75,0.00,,,0.04,WUHU216HW,2013-06-06 15:59:00,
2013-06-06 11:04:00,57.3,48.7,30.13,NNE,23,9.1,9.1,73,0.00,,,0.04,WUHU216HW,2013-06-06 16:04:00,
2013-06-06 11:09:00,56.8,48.2,30.13,NNE,23,5.7,9.1,73,0.00,,,0.04,WUHU216HW,2013-06-06 16:09:00,
2013-06-06 11:14:00,56.8,47.8,30.13,NNE,23,8.4,9.1,72,0.00,,,0.04,WUHU216HW,2013-06-06 16:14:00,
2013-06-06 11:19:00,56.8,48.2,30.13,NNE,23,6.6,8.4,73,0.00,,,0.04,WUHU216HW,2013-06-06 16:19:00,
2013-06-06 11:24:00,56.8,47.8,30.14,NNE,23,0.0,8.4,72,0.00,,,0.04,WUHU216HW,2013-06-06 16:24:00,
2013-06-06 11:29:00,56.8,47.8,30.13,NNE,23,6.9,8.0,72,0.00,,,0.04,WUHU216HW,2013-06-06 16:29:00,
2013-06-06 11:34:00,57.0,48.3,30.13,NNE,23,8.9,8.9,73,0.00,,,0.04,WUHU216HW,2013-06-06 16:34:00,
2013-06-06 11:39:00,57.3,48.7,30.14,NNE,23,0.0,8.9,73,0.00,,,0.04,WUHU216HW,2013-06-06 16:39:00,
2013-06-06 11:44:00,57.3,48.0,30.14,NNE,23,0.0,6.1,71,0.00,,,0.04,WUHU216HW,2013-06-06 16:44:00,
2013-06-06 11:49:00,57.3,48.3,30.14,NNE,23,6.1,6.1,72,0.00,,,0.04,WUHU216HW,2013-06-06 16:49:00,
2013-06-06 11:54:00,57.5,48.2,30.14,North,0,9.1,9.1,71,0.00,,,0.04,WUHU216HW,2013-06-06 16:54:00,
2013-06-06 11:59:00,57.5,48.2,30.14,NNE,23,4.8,9.1,71,0.00,,,0.04,WUHU216HW,2013-06-06 16:59:00,
2013-06-06 12:04:00,57.3,48.0,30.14,NNE,23,6.1,6.1,71,0.00,,,0.04,WUHU216HW,2013-06-06 17:04:00,
2013-06-06 12:09:00,57.3,48.3,30.14,NNE,23,0.0,6.1,72,0.00,,,0.04,WUHU216HW,2013-06-06 17:09:00,
2013-06-06 12:14:00,57.0,48.0,30.14,NNE,23,0.0,0.0,72,0.00,,,0.04,WUHU216HW,2013-06-06 17:14:00,
2013-06-06 12:19:00,57.3,48.3,30.14,North,0,6.1,6.1,72,0.00,,,0.04,WUHU216HW,2013-06-06 17:19:00,
2013-06-06 12:24:00,57.7,48.3,30.14,NNE,23,5.0,6.1,71,0.00,,,0.04,WUHU216HW,2013-06-06 17:24:00,
2013-06-06 12:29:00,58.1,48.7,30.14,North,0,8.9,8.9,71,0.00,,,0.04,WUHU216HW,2013-06-06 17:29:00,
2013-06-06 12:34:00,57.7,48.3,30.14,North,0,5.3,8.9,71,0.00,,,0.04,WUHU216HW,2013-06-06 17:34:00,
2013-06-06 12:39:00,57.3,48.3,30.14,North,0,5.3,8.9,72,0.00,,,0.04,WUHU216HW,2013-06-06 17:39:00,
2013-06-06 12:44:00,57.0,48.0,30.14,NNE,23,6.4,6.4,72,0.00,,,0.04,WUHU216HW,2013-06-06 17:44:00,
2013-06-06 12:49:00,57.9,48.5,30.14,NNE,23,0.0,6.4,71,0.00,,,0.04,WUHU216HW,2013-06-06 17:49:00,
2013-06-06 12:54:00,58.6,49.2,30.14,North,2,4.1,7.5,71,0.00,,,0.04,WUHU216HW,2013-06-06 17:54:00,
2013-06-06 12:59:00,58.8,49.1,30.14,NNE,23,5.9,7.5,70,0.00,,,0.04,WUHU216HW,2013-06-06 17:59:00,
2013-06-06 13:04:00,58.8,48.6,30.14,North,0,6.4,7.5,69,0.00,,,0.04,WUHU216HW,2013-06-06 18:04:00,
2013-06-06 13:09:00,59.3,49.2,30.14,North,0,3.0,7.8,69,0.00,,,0.04,WUHU216HW,2013-06-06 18:09:00,
2013-06-06 13:14:00,59.3,48.8,30.14,North,0,0.0,7.8,68,0.00,,,0.04,WUHU216HW,2013-06-06 18:14:00,
2013-06-06 13:19:00,59.0,48.8,30.14,North,0,8.9,8.9,69,0.00,,,0.04,WUHU216HW,2013-06-06 18:19:00,
2013-06-06 13:24:00,58.8,48.6,30.14,North,0,8.4,12.0,69,0.00,,,0.04,WUHU216HW,2013-06-06 18:24:00,
2013-06-06 13:29:00,58.1,48.7,30.14,North,0,8.2,12.0,71,0.00,,,0.04,WUHU216HW,2013-06-06 18:29:00,
2013-06-06 13:34:00,58.6,49.2,30.14,North,0,5.8,8.9,71,0.00,,,0.04,WUHU216HW,2013-06-06 18:34:00,
2013-06-06 13:39:00,58.8,48.6,30.14,North,0,6.9,7.5,69,0.00,,,0.04,WUHU216HW,2013-06-06 18:39:00,
2013-06-06 13:44:00,60.4,50.3,30.14,North,0,5.7,6.9,69,0.00,,,0.04,WUHU216HW,2013-06-06 18:44:00,
2013-06-06 13:49:00,60.4,49.8,30.14,North,0,3.7,6.6,68,0.00,,,0.04,WUHU216HW,2013-06-06 18:49:00,
2013-06-06 13:54:00,60.0,49.5,30.14,North,0,10.3,10.3,68,0.00,,,0.04,WUHU216HW,2013-06-06 18:54:00,
2013-06-06 13:59:00,59.5,48.9,30.13,North,11,6.3,10.3,68,0.00,,,0.04,WUHU216HW,2013-06-06 18:59:00,
2013-06-06 14:04:00,59.7,49.1,30.13,NNE,23,10.9,10.9,68,0.00,,,0.04,WUHU216HW,2013-06-06 19:04:00,
2013-06-06 14:09:00,60.0,49.5,30.13,NNW,338,4.8,10.9,68,0.00,,,0.04,WUHU216HW,2013-06-06 19:09:00,
2013-06-06 14:14:00,60.6,49.6,30.13,North,353,6.5,8.9,67,0.00,,,0.04,WUHU216HW,2013-06-06 19:14:00,
2013-06-06 14:19:00,60.9,49.5,30.13,North,0,7.8,8.9,66,0.00,,,0.04,WUHU216HW,2013-06-06 19:19:00,
2013-06-06 14:24:00,60.8,49.4,30.13,North,0,13.4,13.4,66,0.00,,,0.04,WUHU216HW,2013-06-06 19:24:00,
2013-06-06 14:29:00,60.6,49.2,30.13,NNE,14,6.3,13.4,66,0.00,,,0.04,WUHU216HW,2013-06-06 19:29:00,
2013-06-06 14:34:00,60.4,49.4,30.13,North,0,3.9,8.0,67,0.00,,,0.04,WUHU216HW,2013-06-06 19:34:00,
2013-06-06 14:39:00,60.6,49.6,30.14,NNW,338,4.4,8.0,67,0.00,,,0.04,WUHU216HW,2013-06-06 19:39:00,
2013-06-06 14:44:00,60.6,49.6,30.14,North,9,4.9,8.9,67,0.00,,,0.04,WUHU216HW,2013-06-06 19:44:00,
2013-06-06 14:49:00,60.6,49.2,30.14,North,0,5.3,9.1,66,0.00,,,0.04,WUHU216HW,2013-06-06 19:49:00,
2013-06-06 14:54:00,60.8,49.4,30.14,NNE,23,5.0,9.1,66,0.00,,,0.04,WUHU216HW,2013-06-06 19:54:00,
2013-06-06 14:59:00,60.9,49.5,30.13,NNW,337,6.6,9.5,66,0.00,,,0.04,WUHU216HW,2013-06-06 19:59:00,
2013-06-06 15:04:00,61.3,49.4,30.13,North,0,6.4,9.5,65,0.00,,,0.04,WUHU216HW,2013-06-06 20:04:00,
2013-06-06 15:09:00,62.2,50.3,30.13,NNE,23,7.3,7.3,65,0.00,,,0.04,WUHU216HW,2013-06-06 20:09:00,
2013-06-06 15:14:00,62.6,50.2,30.14,North,0,1.6,7.3,64,0.00,,,0.04,WUHU216HW,2013-06-06 20:14:00,
2013-06-06 15:19:00,62.6,49.3,30.14,NNE,23,0.0,1.6,62,0.00,,,0.04,WUHU216HW,2013-06-06 20:19:00,
2013-06-06 15:24:00,62.9,49.2,30.14,NNE,23,0.5,5.8,61,0.00,,,0.04,WUHU216HW,2013-06-06 20:24:00,
2013-06-06 15:29:00,62.6,48.9,30.13,North,0,0.0,8.4,61,0.00,,,0.04,WUHU216HW,2013-06-06 20:29:00,
2013-06-06 15:34:00,62.6,49.8,30.13,North,0,0.0,8.4,63,0.00,,,0.04,WUHU216HW,2013-06-06 20:34:00,
2013-06-06 15:39:00,62.6,49.8,30.13,North,0,0.0,0.0,63,0.00,,,0.04,WUHU216HW,2013-06-06 20:39:00,
2013-06-06 15:44:00,62.6,49.8,30.13,North,0,0.0,0.0,63,0.00,,,0.04,WUHU216HW,2013-06-06 20:44:00,
2013-06-06 15:49:00,62.6,49.8,30.13,North,0,0.0,0.0,63,0.00,,,0.04,WUHU216HW,2013-06-06 20:49:00,
2013-06-06 19:13:00,59.9,48.5,30.12,East,90,3.0,3.0,66,0.00,,,0.04,WUHU216HW,2013-06-07 00:13:00,
2013-06-06 19:18:00,59.9,48.5,30.12,East,90,0.0,3.0,66,0.00,,,0.04,WUHU216HW,2013-06-07 00:18:00,
2013-06-06 19:23:00,58.8,47.8,30.12,East,90,1.6,3.0,67,0.00,,,0.04,WUHU216HW,2013-06-07 00:23:00,
2013-06-06 19:28:00,58.8,47.8,30.12,East,90,1.4,1.9,67,0.00,,,0.04,WUHU216HW,2013-06-07 00:28:00,
2013-06-06 19:33:00,58.8,47.8,30.12,East,90,0.0,1.4,67,0.00,,,0.04,WUHU216HW,2013-06-07 00:33:00,
2013-06-06 19:38:00,58.2,47.7,30.12,East,90,0.0,2.1,68,0.00,,,0.04,WUHU216HW,2013-06-07 00:38:00,
2013-06-06 19:43:00,58.2,48.1,30.12,East,90,0.0,2.1,69,0.00,,,0.04,WUHU216HW,2013-06-07 00:43:00,
2013-06-06 19:48:00,58.2,47.7,30.12,East,90,2.8,2.8,68,0.00,,,0.04,WUHU216HW,2013-06-07 00:48:00,
2013-06-06 19:53:00,58.1,47.9,30.12,East,90,0.0,2.8,69,0.00,,,0.04,WUHU216HW,2013-06-07 00:53:00,
2013-06-06 19:58:00,58.1,47.9,30.12,East,90,0.0,1.9,69,0.00,,,0.04,WUHU216HW,2013-06-07 00:58:00,
2013-06-06 20:03:00,57.9,47.7,30.12,East,90,0.0,1.9,69,0.00,,,0.04,WUHU216HW,2013-06-07 01:03:00,
2013-06-06 20:08:00,57.7,47.6,30.13,East,90,0.0,0.0,69,0.00,,,0.04,WUHU216HW,2013-06-07 01:08:00,
2013-06-06 20:13:00,57.7,48.0,30.12,East,90,0.0,0.0,70,0.00,,,0.04,WUHU216HW,2013-06-07 01:13:00,
2013-06-06 20:18:00,57.5,47.4,30.12,East,90,0.0,0.0,69,0.00,,,0.04,WUHU216HW,2013-06-07 01:18:00,
2013-06-06 20:23:00,57.0,47.3,30.12,East,90,0.0,0.0,70,0.00,,,0.04,WUHU216HW,2013-06-07 01:23:00,
2013-06-06 20:28:00,56.8,47.1,30.12,East,90,0.0,0.0,70,0.00,,,0.04,WUHU216HW,2013-06-07 01:28:00,
2013-06-06 20:33:00,56.4,47.1,30.12,East,90,0.0,0.0,71,0.00,,,0.04,WUHU216HW,2013-06-07 01:33:00,
2013-06-06 20:38:00,56.8,47.4,30.12,East,90,0.0,0.0,71,0.00,,,0.04,WUHU216HW,2013-06-07 01:38:00,
2013-06-06 20:43:00,56.3,47.4,30.12,East,90,0.0,0.0,71,0.00,,,0.04,WUHU216HW,2013-06-07 01:43:00,
2013-06-06 20:48:00,55.7,46.8,30.12,East,90,0.0,0.0,72,0.00,,,0.04,WUHU216HW,2013-06-07 01:48:00,
2013-06-06 20:53:00,55.0,46.1,30.13,East,90,0.0,0.0,72,0.00,,,0.04,WUHU216HW,2013-06-07 01:53:00,
2013-06-06 20:58:00,54.3,45.8,30.12,East,90,0.0,0.0,73,0.00,,,0.04,WUHU216HW,2013-06-07 01:58:00,
2013-06-06 21:03:00,53.7,45.3,30.12,East,90,0.0,0.0,73,0.00,,,0.04,WUHU216HW,2013-06-07 02:03:00,
2013-06-06 21:08:00,52.8,44.8,30.12,East,90,0.0,0.0,74,0.00,,,0.04,WUHU216HW,2013-06-07 02:08:00,
2013-06-06 21:13:00,52.3,44.6,30.12,East,90,0.0,0.0,75,0.00,,,0.04,WUHU216HW,2013-06-07 02:13:00,
2013-06-06 21:18:00,51.6,43.9,30.12,East,90,0.0,0.0,75,0.00,,,0.04,WUHU216HW,2013-06-07 02:18:00,
2013-06-06 21:23:00,50.7,43.7,30.13,East,90,0.0,0.0,76,0.00,,,0.04,WUHU216HW,2013-06-07 02:23:00,
2013-06-06 21:28:00,50.3,43.0,30.13,East,90,0.0,0.0,76,0.00,,,0.04,WUHU216HW,2013-06-07 02:28:00,
2013-06-06 21:33:00,50.1,43.2,30.12,East,90,0.0,0.0,77,0.00,,,0.04,WUHU216HW,2013-06-07 02:33:00,
2013-06-06 21:38:00,49.6,43.0,30.12,East,90,0.0,0.0,78,0.00,,,0.04,WUHU216HW,2013-06-07 02:38:00,
2013-06-06 21:43:00,49.6,43.0,30.13,East,90,0.0,0.0,78,0.00,,,0.04,WUHU216HW,2013-06-07 02:43:00,
2013-06-06 21:48:00,49.2,42.6,30.13,East,90,0.0,0.0,78,0.00,,,0.04,WUHU216HW,2013-06-07 02:48:00,
2013-06-06 21:54:00,49.1,43.1,30.13,East,90,0.0,0.0,80,0.00,,,0.04,WUHU216HW,2013-06-07 02:54:00,
2013-06-06 21:59:00,49.1,43.1,30.13,East,90,0.0,0.0,80,0.00,,,0.04,WUHU216HW,2013-06-07 02:59:00,
2013-06-06 22:04:00,49.1,43.1,30.13,East,90,0.0,0.0,80,0.00,,,0.04,WUHU216HW,2013-06-07 03:04:00,
2013-06-06 22:09:00,48.7,42.8,30.14,East,90,0.0,0.0,80,0.00,,,0.04,WUHU216HW,2013-06-07 03:09:00,
2013-06-06 22:14:00,48.7,43.1,30.14,East,90,0.0,0.0,81,0.00,,,0.04,WUHU216HW,2013-06-07 03:14:00,
2013-06-06 22:19:00,48.9,43.6,30.14,East,90,0.0,0.0,82,0.00,,,0.04,WUHU216HW,2013-06-07 03:19:00,
2013-06-06 22:24:00,49.1,43.7,30.14,East,90,0.0,0.0,82,0.00,,,0.04,WUHU216HW,2013-06-07 03:24:00,
2013-06-06 22:29:00,49.2,43.9,30.14,East,90,0.0,0.0,82,0.00,,,0.04,WUHU216HW,2013-06-07 03:29:00,
2013-06-06 22:34:00,49.1,43.7,30.14,East,90,0.0,0.0,82,0.00,,,0.04,WUHU216HW,2013-06-07 03:34:00,
2013-06-06 22:39:00,48.7,43.4,30.14,East,90,0.0,0.0,82,0.00,,,0.04,WUHU216HW,2013-06-07 03:39:00,
2013-06-06 22:44:00,48.5,43.2,30.13,East,90,0.0,0.0,82,0.00,,,0.04,WUHU216HW,2013-06-07 03:44:00,
2013-06-06 22:49:00,48.7,43.7,30.14,East,90,0.0,0.0,83,0.00,,,0.04,WUHU216HW,2013-06-07 03:49:00,
2013-06-06 22:54:00,49.1,44.4,30.14,East,90,0.0,0.0,84,0.00,,,0.04,WUHU216HW,2013-06-07 03:54:00,
2013-06-06 22:59:00,49.6,44.9,30.14,East,90,0.0,0.0,84,0.00,,,0.04,WUHU216HW,2013-06-07 03:59:00,
2013-06-06 23:01:00,49.6,45.2,30.14,East,90,0.0,0.0,84,0.00,,,0.04,WUHU216HW,2013-06-07 04:01:00,
2013-06-06 23:02:00,49.6,45.2,30.14,East,90,0.0,0.0,84,0.00,,,0.04,WUHU216HW,2013-06-07 04:02:00,
2013-06-06 23:07:00,49.8,45.4,30.14,East,90,0.0,0.0,85,0.00,,,0.04,WUHU216HW,2013-06-07 04:07:00,
2013-06-06 23:12:00,49.6,45.2,30.14,East,90,0.0,0.0,85,0.00,,,0.04,WUHU216HW,2013-06-07 04:12:00,
2013-06-06 23:17:00,49.4,45.0,30.14,East,90,0.0,0.0,85,0.00,,,0.04,WUHU216HW,2013-06-07 04:17:00,
2013-06-06 23:22:00,48.7,44.0,30.14,East,90,0.0,0.0,84,0.00,,,0.04,WUHU216HW,2013-06-07 04:22:00,
2013-06-06 23:27:00,48.3,43.7,30.14,East,90,0.0,0.0,84,0.00,,,0.04,WUHU216HW,2013-06-07 04:27:00,
2013-06-06 23:32:00,48.0,43.3,30.14,East,90,0.0,0.0,84,0.00,,,0.04,WUHU216HW,2013-06-07 04:32:00,
2013-06-06 23:37:00,47.3,42.7,30.14,East,90,0.0,0.0,84,0.00,,,0.04,WUHU216HW,2013-06-07 04:37:00,
2013-06-06 23:42:00,47.1,42.2,30.13,East,90,0.0,0.0,83,0.00,,,0.04,WUHU216HW,2013-06-07 04:42:00,
2013-06-06 23:47:00,47.3,42.7,30.13,East,90,0.0,0.0,84,0.00,,,0.04,WUHU216HW,2013-06-07 04:47:00,
2013-06-06 23:52:00,47.3,42.7,30.13,East,90,0.0,0.0,84,0.00,,,0.04,WUHU216HW,2013-06-07 04:52:00,
2013-06-06 23:57:00,47.1,42.5,30.13,East,90,0.0,0.0,84,0.00,,,0.04,WUHU216HW,2013-06-07 04:57:00,